Página principal
METAR-TAF:

METAR-TAF

Aeroportos :

Aeroporto Internacional de Ancara Esenboğa

Ancara Esenboğa, Turquia

latitude: 40-07N, longitude: 032-59E, altura: 953 m

Observação actual do tempo

O boletim foi feito há 48 minutos, às 07:20 UTC
Vento 14 kt de nor-nordeste
Temperatura 21°C
Humidade 60%
Pressão 1016 hPa
Visibilidade 10 km ou mais
Poucas nuvensa uma altura de 4000 ft

METAR: LTAC 250720Z 02014KT 9999 FEW040 21/13 Q1016 BECMG VRB02KT

Hora: 11:08 (08:08 UTC)

Previsão

O boletim foi feito há 3 horas e 28 minutos, às 04:40 UTC
Previsão válida de 25 às 06 UTC a 26 às 06 UTC
Vento 2 kt com direcção variável
Visibilidade 10 km ou mais
Nuvens dispersasa uma altura de 4000 ft
Probabilidade 40% :
Temporariamente
de 25 às 09 UTC a 25 às 13 UTC
Vento 15 kt de nor-nordeste
Poucas nuvensa uma altura de 2500 ft, Cumulonimbus.
Nuvens fragmentadasa uma altura de 3000 ft
trovoada, chuva fraca

TAF: LTAC 250440Z 2506/2606 VRB02KT 9999 SCT040 PROB40 TEMPO 2509/2513 02015KT -TSRA FEW025CB BKN030

Observações e previsões do tempo de mais de 4000 aeroportos (mensagens METAR e TAF).

As estações disponíveis são os pontos amarelos e vermelhos sobre o mapa.

Mova o rato sobre o mapa para ver o nome da estação.

Depois clique no ponto para visualizar as observações e previsões meteorológicas.

Para alterar o mapa : clique nos botões verdes com uma cruz preta para aumentar o zoom; no botão verde com uma pitada de zoom; ou nas setas verdes para mapas adjacentes.


METAR-TAF: